Wetterdaten: Woche 05.03.07 - 11.03.07 (KW10)
Datum Zeit Temperatur Luftfeuchte Luftdruck Niederschlag Windrichtung Wind
05.03.2007 00:00 3,6 C 74 % 1016 hPa 0,0 l/m - - 0,0 km/h (0 Bft)
05.03.2007 01:00 3,2 C 76 % 1016 hPa 0,0 l/m - - 0,0 km/h (0 Bft)
05.03.2007 02:00 2,9 C 78 % 1016 hPa 0,0 l/m - - 0,0 km/h (0 Bft)
05.03.2007 03:00 2,7 C 80 % 1015 hPa 0,0 l/m - - 0,0 km/h (0 Bft)
05.03.2007 04:00 2,6 C 81 % 1016 hPa 0,0 l/m - - 0,0 km/h (0 Bft)
05.03.2007 05:00 1,8 C 83 % 1017 hPa 0,0 l/m - - 0,0 km/h (0 Bft)
05.03.2007 06:00 1,2 C 86 % 1017 hPa 0,0 l/m - - 0,0 km/h (0 Bft)
05.03.2007 07:00 0,7 C 89 % 1018 hPa 0,0 l/m - - 0,0 km/h (0 Bft)
05.03.2007 08:00 2,6 C 91 % 1019 hPa 0,0 l/m - - 0,0 km/h (0 Bft)
05.03.2007 09:00 7,4 C 70 % 1020 hPa 0,0 l/m - - 0,0 km/h (0 Bft)
05.03.2007 10:00 8,8 C 71 % 1021 hPa 0,0 l/m - - 0,0 km/h (0 Bft)
05.03.2007 11:00 8,6 C 77 % 1022 hPa 0,0 l/m - - 0,0 km/h (0 Bft)
05.03.2007 12:00 8,6 C 78 % 1024 hPa 0,0 l/m - - 0,0 km/h (0 Bft)
05.03.2007 13:00 8,5 C 71 % 1024 hPa 0,0 l/m - - 0,0 km/h (0 Bft)
05.03.2007 14:00 8,4 C 66 % 1024 hPa 0,0 l/m - - 0,0 km/h (0 Bft)
05.03.2007 15:00 8,0 C 64 % 1024 hPa 0,0 l/m - - 0,0 km/h (0 Bft)
05.03.2007 16:00 8,0 C 65 % 1024 hPa 0,0 l/m - - 0,0 km/h (0 Bft)
05.03.2007 17:00 7,9 C 62 % 1025 hPa 0,0 l/m - - 0,0 km/h (0 Bft)
05.03.2007 18:00 6,7 C 67 % 1025 hPa 0,0 l/m - - 0,0 km/h (0 Bft)
05.03.2007 19:00 4,8 C 73 % 1025 hPa 0,0 l/m - - 0,0 km/h (0 Bft)
05.03.2007 20:00 3,1 C 80 % 1025 hPa 0,0 l/m - - 0,0 km/h (0 Bft)
05.03.2007 21:00 1,8 C 84 % 1025 hPa 0,0 l/m - - 0,0 km/h (0 Bft)
05.03.2007 22:00 0,9 C 88 % 1025 hPa 0,0 l/m - - 0,0 km/h (0 Bft)
05.03.2007 23:00 0,1 C 90 % 1025 hPa 0,0 l/m - - 0,0 km/h (0 Bft)
06.03.2007 00:00 -0,5 C 92 % 1024 hPa 0,0 l/m - - 0,0 km/h (0 Bft)
06.03.2007 01:00 -0,9 C 94 % 1024 hPa 0,0 l/m - - 0,0 km/h (0 Bft)
06.03.2007 02:00 -1,2 C 95 % 1023 hPa 0,0 l/m - - 0,0 km/h (0 Bft)
06.03.2007 03:00 -1,4 C 96 % 1022 hPa 0,0 l/m - - 0,0 km/h (0 Bft)
06.03.2007 04:00 -1,7 C 97 % 1022 hPa 0,0 l/m - - 0,0 km/h (0 Bft)
06.03.2007 05:00 -1,9 C 97 % 1021 hPa 0,0 l/m - - 0,0 km/h (0 Bft)
06.03.2007 06:00 -2,0 C 98 % 1021 hPa 0,0 l/m - - 0,0 km/h (0 Bft)
06.03.2007 07:00 -2,2 C 98 % 1020 hPa 0,0 l/m - - 0,0 km/h (0 Bft)
06.03.2007 08:00 -0,5 C 98 % 1020 hPa 0,0 l/m - - 0,0 km/h (0 Bft)
06.03.2007 09:00 1,5 C 98 % 1020 hPa 0,0 l/m - - 0,0 km/h (0 Bft)
06.03.2007 10:00 5,4 C 90 % 1019 hPa 0,0 l/m - - 0,0 km/h (0 Bft)
06.03.2007 11:00 7,4 C 66 % 1018 hPa 0,0 l/m - - 0,0 km/h (0 Bft)
06.03.2007 12:00 10,0 C 54 % 1017 hPa 0,0 l/m - - 0,0 km/h (0 Bft)
06.03.2007 13:00 12,8 C 45 % 1016 hPa 0,0 l/m - - 0,0 km/h (0 Bft)
06.03.2007 14:00 14,1 C 43 % 1016 hPa 0,0 l/m - - 0,0 km/h (0 Bft)
06.03.2007 15:00 14,0 C 43 % 1015 hPa 0,0 l/m - - 0,0 km/h (0 Bft)
06.03.2007 16:00 13,5 C 46 % 1014 hPa 0,0 l/m - - 0,0 km/h (0 Bft)
06.03.2007 17:00 12,3 C 52 % 1013 hPa 0,0 l/m - - 0,0 km/h (0 Bft)
06.03.2007 18:00 10,1 C 62 % 1013 hPa 0,0 l/m - - 0,0 km/h (0 Bft)
06.03.2007 19:00 8,1 C 68 % 1013 hPa 0,0 l/m - - 0,0 km/h (0 Bft)
06.03.2007 20:00 6,6 C 71 % 1013 hPa 0,0 l/m - - 0,0 km/h (0 Bft)
06.03.2007 21:00 5,2 C 76 % 1013 hPa 0,0 l/m - - 0,0 km/h (0 Bft)
06.03.2007 22:00 4,2 C 81 % 1013 hPa 0,0 l/m - - 0,0 km/h (0 Bft)
06.03.2007 23:00 3,7 C 85 % 1012 hPa 0,0 l/m - - 0,0 km/h (0 Bft)
07.03.2007 00:00 3,1 C 87 % 1011 hPa 0,0 l/m - - 0,0 km/h (0 Bft)
07.03.2007 01:00 3,2 C 90 % 1010 hPa 0,0 l/m - - 0,0 km/h (0 Bft)
07.03.2007 02:00 3,6 C 92 % 1010 hPa 0,0 l/m - - 0,0 km/h (0 Bft)
07.03.2007 03:00 3,5 C 91 % 1010 hPa 0,0 l/m - - 0,0 km/h (0 Bft)
07.03.2007 04:00 3,5 C 92 % 1010 hPa 0,0 l/m - - 0,0 km/h (0 Bft)
07.03.2007 05:00 3,6 C 92 % 1010 hPa 0,0 l/m - - 0,0 km/h (0 Bft)
07.03.2007 06:00 4,3 C 94 % 1010 hPa 0,0 l/m - - 0,0 km/h (0 Bft)
07.03.2007 07:00 4,9 C 96 % 1009 hPa 1,0 l/m - - 0,0 km/h (0 Bft)
07.03.2007 08:00 5,2 C 98 % 1009 hPa 0,0 l/m - - 0,0 km/h (0 Bft)
07.03.2007 09:00 6,1 C 98 % 1009 hPa 0,0 l/m - - 0,0 km/h (0 Bft)
07.03.2007 10:00 6,8 C 98 % 1009 hPa 0,0 l/m - - 0,0 km/h (0 Bft)
07.03.2007 11:00 7,5 C 95 % 1008 hPa 0,0 l/m - - 0,0 km/h (0 Bft)
07.03.2007 12:00 8,5 C 82 % 1008 hPa 0,0 l/m - - 0,0 km/h (0 Bft)
07.03.2007 13:00 9,9 C 70 % 1007 hPa 0,0 l/m - - 0,0 km/h (0 Bft)
07.03.2007 14:00 10,3 C 64 % 1006 hPa 0,0 l/m - - 0,0 km/h (0 Bft)
07.03.2007 15:00 10,4 C 61 % 1006 hPa 0,0 l/m - - 0,0 km/h (0 Bft)
07.03.2007 16:00 10,0 C 62 % 1007 hPa 1,0 l/m - - 0,0 km/h (0 Bft)
07.03.2007 17:00 9,6 C 65 % 1007 hPa 0,0 l/m - - 0,0 km/h (0 Bft)
07.03.2007 18:00 8,6 C 71 % 1007 hPa 0,0 l/m - - 0,0 km/h (0 Bft)
07.03.2007 19:00 6,5 C 78 % 1007 hPa 0,0 l/m - - 0,0 km/h (0 Bft)
07.03.2007 20:00 5,4 C 85 % 1008 hPa 0,0 l/m - - 0,0 km/h (0 Bft)
07.03.2007 21:00 5,8 C 89 % 1008 hPa 0,0 l/m - - 0,0 km/h (0 Bft)
07.03.2007 22:00 5,5 C 90 % 1009 hPa 0,0 l/m - - 0,0 km/h (0 Bft)
07.03.2007 23:00 5,6 C 92 % 1009 hPa 0,0 l/m - - 0,0 km/h (0 Bft)
08.03.2007 00:00 5,3 C 93 % 1010 hPa 0,0 l/m - - 0,0 km/h (0 Bft)
08.03.2007 01:00 4,9 C 94 % 1010 hPa 0,0 l/m - - 0,0 km/h (0 Bft)
08.03.2007 02:00 4,9 C 95 % 1011 hPa 0,0 l/m - - 0,0 km/h (0 Bft)
08.03.2007 03:00 5,0 C 94 % 1012 hPa 0,0 l/m - - 0,0 km/h (0 Bft)
08.03.2007 04:00 5,0 C 93 % 1013 hPa 0,0 l/m - - 0,0 km/h (0 Bft)
08.03.2007 05:00 5,0 C 90 % 1014 hPa 0,0 l/m - - 0,0 km/h (0 Bft)
08.03.2007 06:00 5,0 C 88 % 1015 hPa 0,0 l/m - - 0,0 km/h (0 Bft)
08.03.2007 07:00 5,0 C 87 % 1016 hPa 0,0 l/m - - 0,0 km/h (0 Bft)
08.03.2007 08:00 5,7 C 84 % 1017 hPa 0,0 l/m - - 0,0 km/h (0 Bft)
08.03.2007 09:00 7,0 C 73 % 1018 hPa 0,0 l/m - - 0,0 km/h (0 Bft)
08.03.2007 10:00 9,0 C 56 % 1019 hPa 0,0 l/m - - 0,0 km/h (0 Bft)
08.03.2007 11:00 9,4 C 51 % 1019 hPa 0,0 l/m - - 0,0 km/h (0 Bft)
08.03.2007 12:00 10,4 C 45 % 1020 hPa 0,0 l/m - - 0,0 km/h (0 Bft)
08.03.2007 13:00 11,3 C 39 % 1020 hPa 0,0 l/m - - 0,0 km/h (0 Bft)
08.03.2007 14:00 11,4 C 39 % 1021 hPa 0,0 l/m - - 0,0 km/h (0 Bft)
08.03.2007 15:00 11,0 C 38 % 1022 hPa 0,0 l/m - - 0,0 km/h (0 Bft)
08.03.2007 16:00 10,4 C 41 % 1023 hPa 0,0 l/m - - 0,0 km/h (0 Bft)
08.03.2007 17:00 9,6 C 42 % 1024 hPa 0,0 l/m - - 0,0 km/h (0 Bft)
08.03.2007 18:00 7,6 C 47 % 1025 hPa 0,0 l/m - - 0,0 km/h (0 Bft)
08.03.2007 19:00 5,9 C 55 % 1026 hPa 0,0 l/m - - 0,0 km/h (0 Bft)
08.03.2007 20:00 4,3 C 63 % 1027 hPa 0,0 l/m - - 0,0 km/h (0 Bft)
08.03.2007 21:00 3,2 C 72 % 1028 hPa 0,0 l/m - - 0,0 km/h (0 Bft)
08.03.2007 22:00 3,3 C 75 % 1028 hPa 0,0 l/m - - 0,0 km/h (0 Bft)
08.03.2007 23:00 2,8 C 77 % 1029 hPa 0,0 l/m - - 0,0 km/h (0 Bft)
09.03.2007 00:00 1,5 C 80 % 1029 hPa 0,0 l/m - - 0,0 km/h (0 Bft)
09.03.2007 01:00 0,5 C 84 % 1029 hPa 0,0 l/m - - 0,0 km/h (0 Bft)
09.03.2007 02:00 -0,1 C 88 % 1029 hPa 0,0 l/m - - 0,0 km/h (0 Bft)
09.03.2007 03:00 -0,5 C 90 % 1029 hPa 0,0 l/m - - 0,0 km/h (0 Bft)
09.03.2007 04:00 -0,8 C 91 % 1029 hPa 0,0 l/m - - 0,0 km/h (0 Bft)
09.03.2007 05:00 -0,1 C 94 % 1029 hPa 0,0 l/m - - 0,0 km/h (0 Bft)
09.03.2007 06:00 0,1 C 95 % 1030 hPa 0,0 l/m - - 0,0 km/h (0 Bft)
09.03.2007 07:00 0,4 C 95 % 1030 hPa 0,0 l/m - - 0,0 km/h (0 Bft)
09.03.2007 08:00 1,3 C 96 % 1030 hPa 0,0 l/m - - 0,0 km/h (0 Bft)
09.03.2007 09:00 3,5 C 95 % 1030 hPa 0,0 l/m - - 0,0 km/h (0 Bft)
09.03.2007 10:00 7,1 C 72 % 1029 hPa 0,0 l/m - - 0,0 km/h (0 Bft)
09.03.2007 11:00 8,7 C 54 % 1029 hPa 0,0 l/m - - 0,0 km/h (0 Bft)
09.03.2007 12:00 9,9 C 41 % 1028 hPa 0,0 l/m - - 0,0 km/h (0 Bft)
09.03.2007 13:00 10,9 C 39 % 1027 hPa 0,0 l/m - - 0,0 km/h (0 Bft)
09.03.2007 14:00 10,9 C 39 % 1026 hPa 0,0 l/m - - 0,0 km/h (0 Bft)
09.03.2007 15:00 10,5 C 41 % 1026 hPa 0,0 l/m - - 0,0 km/h (0 Bft)
09.03.2007 16:00 9,9 C 40 % 1025 hPa 0,0 l/m - - 0,0 km/h (0 Bft)
09.03.2007 17:00 9,1 C 45 % 1025 hPa 0,0 l/m - - 0,0 km/h (0 Bft)
09.03.2007 18:00 8,1 C 50 % 1025 hPa 0,0 l/m - - 0,0 km/h (0 Bft)
09.03.2007 19:00 7,3 C 52 % 1025 hPa 0,0 l/m - - 0,0 km/h (0 Bft)
09.03.2007 20:00 7,1 C 52 % 1026 hPa 0,0 l/m - - 0,0 km/h (0 Bft)
09.03.2007 21:00 6,9 C 53 % 1026 hPa 0,0 l/m - - 0,0 km/h (0 Bft)
09.03.2007 22:00 6,3 C 57 % 1026 hPa 0,0 l/m - - 0,0 km/h (0 Bft)
09.03.2007 23:00 5,5 C 64 % 1026 hPa 0,0 l/m - - 0,0 km/h (0 Bft)
10.03.2007 00:00 5,4 C 69 % 1027 hPa 0,0 l/m - - 0,0 km/h (0 Bft)
10.03.2007 01:00 4,8 C 80 % 1028 hPa 0,0 l/m - - 0,0 km/h (0 Bft)
10.03.2007 02:00 3,7 C 87 % 1028 hPa 1,0 l/m - - 0,0 km/h (0 Bft)
10.03.2007 03:00 3,1 C 90 % 1029 hPa 0,0 l/m - - 0,0 km/h (0 Bft)
10.03.2007 04:00 2,7 C 92 % 1030 hPa 1,0 l/m - - 0,0 km/h (0 Bft)
10.03.2007 05:00 2,6 C 92 % 1031 hPa 0,0 l/m - - 0,0 km/h (0 Bft)
10.03.2007 06:00 2,5 C 90 % 1032 hPa 0,0 l/m - - 0,0 km/h (0 Bft)
10.03.2007 07:00 2,5 C 89 % 1033 hPa 0,0 l/m - - 0,0 km/h (0 Bft)
10.03.2007 08:00 2,9 C 86 % 1035 hPa 0,0 l/m - - 0,0 km/h (0 Bft)
10.03.2007 09:00 3,7 C 77 % 1035 hPa 0,0 l/m - - 0,0 km/h (0 Bft)
10.03.2007 10:00 4,9 C 60 % 1036 hPa 0,0 l/m - - 0,0 km/h (0 Bft)
10.03.2007 11:00 5,3 C 55 % 1037 hPa 0,0 l/m - - 0,0 km/h (0 Bft)
10.03.2007 12:00 5,8 C 50 % 1037 hPa 0,0 l/m - - 0,0 km/h (0 Bft)
10.03.2007 13:00 6,8 C 45 % 1037 hPa 0,0 l/m - - 0,0 km/h (0 Bft)
10.03.2007 14:00 8,2 C 41 % 1036 hPa 0,0 l/m - - 0,0 km/h (0 Bft)
10.03.2007 15:00 8,2 C 39 % 1036 hPa 0,0 l/m - - 0,0 km/h (0 Bft)
10.03.2007 16:00 7,3 C 40 % 1036 hPa 0,0 l/m - - 0,0 km/h (0 Bft)
10.03.2007 17:00 7,0 C 40 % 1036 hPa 0,0 l/m - - 0,0 km/h (0 Bft)
10.03.2007 18:00 5,3 C 48 % 1037 hPa 0,0 l/m - - 0,0 km/h (0 Bft)
10.03.2007 19:00 3,4 C 56 % 1037 hPa 0,0 l/m - - 0,0 km/h (0 Bft)
10.03.2007 20:00 2,3 C 64 % 1037 hPa 0,0 l/m - - 0,0 km/h (0 Bft)
10.03.2007 21:00 1,2 C 71 % 1037 hPa 0,0 l/m - - 0,0 km/h (0 Bft)
10.03.2007 22:00 0,4 C 75 % 1037 hPa 0,0 l/m - - 0,0 km/h (0 Bft)
10.03.2007 23:00 -0,4 C 78 % 1037 hPa 0,0 l/m - - 0,0 km/h (0 Bft)
11.03.2007 00:00 -1,1 C 80 % 1037 hPa 0,0 l/m - - 0,0 km/h (0 Bft)
11.03.2007 01:00 -1,6 C 83 % 1037 hPa 0,0 l/m - - 0,0 km/h (0 Bft)
11.03.2007 02:00 -2,0 C 86 % 1036 hPa 0,0 l/m - - 0,0 km/h (0 Bft)
11.03.2007 03:00 -2,4 C 88 % 1036 hPa 0,0 l/m - - 0,0 km/h (0 Bft)
11.03.2007 04:00 -2,7 C 89 % 1036 hPa 0,0 l/m - - 0,0 km/h (0 Bft)
11.03.2007 05:00 -3,0 C 90 % 1036 hPa 0,0 l/m - - 0,0 km/h (0 Bft)
11.03.2007 06:00 -3,2 C 91 % 1035 hPa 0,0 l/m - - 0,0 km/h (0 Bft)
11.03.2007 07:00 -3,1 C 92 % 1035 hPa 0,0 l/m - - 0,0 km/h (0 Bft)
11.03.2007 08:00 -1,4 C 95 % 1035 hPa 0,0 l/m - - 0,0 km/h (0 Bft)
11.03.2007 09:00 2,2 C 83 % 1035 hPa 0,0 l/m - - 0,0 km/h (0 Bft)
11.03.2007 10:00 6,2 C 51 % 1035 hPa 0,0 l/m - - 0,0 km/h (0 Bft)
11.03.2007 11:00 7,8 C 40 % 1035 hPa 0,0 l/m - - 0,0 km/h (0 Bft)
11.03.2007 12:00 8,8 C 37 % 1034 hPa 0,0 l/m - - 0,0 km/h (0 Bft)
11.03.2007 13:00 10,0 C 35 % 1033 hPa 0,0 l/m - - 0,0 km/h (0 Bft)
11.03.2007 14:00 10,2 C 32 % 1033 hPa 0,0 l/m - - 0,0 km/h (0 Bft)
11.03.2007 15:00 10,1 C 33 % 1032 hPa 0,0 l/m - - 0,0 km/h (0 Bft)
11.03.2007 16:00 9,8 C 35 % 1032 hPa 0,0 l/m - - 0,0 km/h (0 Bft)
11.03.2007 17:00 9,2 C 37 % 1031 hPa 0,0 l/m - - 0,0 km/h (0 Bft)
11.03.2007 18:00 7,6 C 40 % 1031 hPa 0,0 l/m - - 0,0 km/h (0 Bft)
11.03.2007 19:00 6,2 C 45 % 1031 hPa 0,0 l/m - - 0,0 km/h (0 Bft)
11.03.2007 20:00 5,2 C 50 % 1031 hPa 0,0 l/m - - 0,0 km/h (0 Bft)
11.03.2007 21:00 4,5 C 52 % 1031 hPa 0,0 l/m - - 0,0 km/h (0 Bft)
11.03.2007 22:00 3,8 C 55 % 1031 hPa 0,0 l/m - - 0,0 km/h (0 Bft)
11.03.2007 23:00 2,8 C 58 % 1030 hPa 0,0 l/m - - 0,0 km/h (0 Bft)
Min-Datum _ 11.03.07 11.03.07 07.03.07 - - 05.03.07
_ Min-Zeit 06:53 14:03 13:21 - - 00:00
Minimum _ -3,4 C 32 % 1006 hPa - - 0,0 km/h (0 Bft)
Max-Datum _ 06.03.07 06.03.07 10.03.07 07.03.07 - 05.03.07
_ Max-Zeit 14:36 05:37 11:51 07:03 - 00:00
Maximum _ 14,3 C 98 % 1037 hPa 1,0 l/m - 0,0 km/h
- - (0 Bft)
Durchschnitt _ 5,1 C 72 % 1023 hPa #4,0 l/m - - 0,0 km/h (0 Bft)

Durchschnitt Minimum Temp.4,6 C
Durchschnitt Maximum Temp.5,5 C